sensor_id;sensor_type;location;lat;lon;timestamp;pressure;altitude;pressure_sealevel;temperature;humidity
42105;BME280;70664;51.472;5.712;2023-07-29T00:00:57;100562.31;;;20.84;69.11
42105;BME280;70664;51.472;5.712;2023-07-29T00:03:23;100567.63;;;20.83;69.02
42105;BME280;70664;51.472;5.712;2023-07-29T00:05:49;100557.88;;;20.86;68.96
42105;BME280;70664;51.472;5.712;2023-07-29T00:08:24;100560.47;;;20.86;69.14
42105;BME280;70664;51.472;5.712;2023-07-29T00:10:50;100558.84;;;20.84;68.70
42105;BME280;70664;51.472;5.712;2023-07-29T00:13:21;100554.41;;;20.86;68.86
42105;BME280;70664;51.472;5.712;2023-07-29T00:15:47;100544.00;;;20.84;68.98
42105;BME280;70664;51.472;5.712;2023-07-29T00:18:13;100544.88;;;20.85;68.91
42105;BME280;70664;51.472;5.712;2023-07-29T00:20:39;100538.78;;;20.84;68.73
42105;BME280;70664;51.472;5.712;2023-07-29T00:23:11;100536.97;;;20.86;69.16
42105;BME280;70664;51.472;5.712;2023-07-29T00:25:45;100532.66;;;20.85;69.11
42105;BME280;70664;51.472;5.712;2023-07-29T00:28:12;100536.13;;;20.86;69.02
42105;BME280;70664;51.472;5.712;2023-07-29T00:30:41;100537.09;;;20.83;69.16
42105;BME280;70664;51.472;5.712;2023-07-29T00:33:07;100539.72;;;20.83;69.46
42105;BME280;70664;51.472;5.712;2023-07-29T00:35:36;100542.31;;;20.83;69.40
42105;BME280;70664;51.472;5.712;2023-07-29T00:38:02;100538.88;;;20.83;69.25
42105;BME280;70664;51.472;5.712;2023-07-29T00:40:29;100543.22;;;20.82;69.07
42105;BME280;70664;51.472;5.712;2023-07-29T00:43:01;100543.19;;;20.84;69.50
42105;BME280;70664;51.472;5.712;2023-07-29T00:45:47;100544.09;;;20.83;69.09
42105;BME280;70664;51.472;5.712;2023-07-29T00:48:16;100539.72;;;20.83;68.90
42105;BME280;70664;51.472;5.712;2023-07-29T00:50:45;100525.81;;;20.83;69.44
42105;BME280;70664;51.472;5.712;2023-07-29T00:53:11;100524.03;;;20.83;69.30
42105;BME280;70664;51.472;5.712;2023-07-29T00:55:39;100517.97;;;20.83;69.25
42105;BME280;70664;51.472;5.712;2023-07-29T00:58:12;100515.34;;;20.83;68.93
42105;BME280;70664;51.472;5.712;2023-07-29T01:00:41;100519.72;;;20.82;69.20
42105;BME280;70664;51.472;5.712;2023-07-29T01:09:41;100523.19;;;20.83;69.11
42105;BME280;70664;51.472;5.712;2023-07-29T01:15:53;100519.72;;;20.82;69.03
42105;BME280;70664;51.472;5.712;2023-07-29T01:18:31;100519.81;;;20.80;68.84
42105;BME280;70664;51.472;5.712;2023-07-29T01:21:04;100523.25;;;20.81;69.25
42105;BME280;70664;51.472;5.712;2023-07-29T01:23:43;100523.25;;;20.81;69.01
42105;BME280;70664;51.472;5.712;2023-07-29T01:26:13;100524.16;;;20.80;69.06
42105;BME280;70664;51.472;5.712;2023-07-29T01:28:42;100519.81;;;20.80;68.94
42105;BME280;70664;51.472;5.712;2023-07-29T01:34:48;100524.13;;;20.82;69.30
42105;BME280;70664;51.472;5.712;2023-07-29T01:37:26;100522.41;;;20.80;69.37
42105;BME280;70664;51.472;5.712;2023-07-29T01:40:39;100532.00;;;20.80;69.14
42105;BME280;70664;51.472;5.712;2023-07-29T01:43:08;100533.69;;;20.81;69.35
42105;BME280;70664;51.472;5.712;2023-07-29T01:45:34;100524.16;;;20.80;69.11
42105;BME280;70664;51.472;5.712;2023-07-29T01:48:05;100529.38;;;20.80;69.38
42105;BME280;70664;51.472;5.712;2023-07-29T01:50:31;100518.09;;;20.79;69.58
42105;BME280;70664;51.472;5.712;2023-07-29T01:53:00;100524.25;;;20.78;69.37
42105;BME280;70664;51.472;5.712;2023-07-29T01:55:26;100526.00;;;20.78;69.34
42105;BME280;70664;51.472;5.712;2023-07-29T01:57:52;100519.84;;;20.79;69.39
42105;BME280;70664;51.472;5.712;2023-07-29T02:00:24;100532.91;;;20.79;69.29
42105;BME280;70664;51.472;5.712;2023-07-29T02:02:50;100525.94;;;20.79;69.22
42105;BME280;70664;51.472;5.712;2023-07-29T02:05:16;100525.06;;;20.79;69.21
42105;BME280;70664;51.472;5.712;2023-07-29T02:07:45;100529.38;;;20.80;69.35
42105;BME280;70664;51.472;5.712;2023-07-29T02:10:20;100530.31;;;20.79;69.62
42105;BME280;70664;51.472;5.712;2023-07-29T02:12:46;100530.31;;;20.79;69.48
42105;BME280;70664;51.472;5.712;2023-07-29T02:15:12;100538.13;;;20.79;69.39
42105;BME280;70664;51.472;5.712;2023-07-29T02:17:44;100540.75;;;20.79;69.16
42105;BME280;70664;51.472;5.712;2023-07-29T02:20:10;100540.75;;;20.79;69.35
42105;BME280;70664;51.472;5.712;2023-07-29T02:22:36;100537.22;;;20.80;68.80
42105;BME280;70664;51.472;5.712;2023-07-29T02:25:12;100535.53;;;20.79;69.01
42105;BME280;70664;51.472;5.712;2023-07-29T02:27:38;100545.97;;;20.79;68.58
42105;BME280;70664;51.472;5.712;2023-07-29T02:30:05;100527.78;;;20.77;68.82
42105;BME280;70664;51.472;5.712;2023-07-29T02:32:31;100516.41;;;20.78;68.86
42105;BME280;70664;51.472;5.712;2023-07-29T02:34:59;100516.41;;;20.78;68.58
42105;BME280;70664;51.472;5.712;2023-07-29T02:37:25;100519.84;;;20.79;68.38
42105;BME280;70664;51.472;5.712;2023-07-29T02:39:54;100514.72;;;20.77;68.67
42105;BME280;70664;51.472;5.712;2023-07-29T02:42:20;100525.94;;;20.79;67.94
42105;BME280;70664;51.472;5.712;2023-07-29T02:44:49;100525.16;;;20.77;68.26
42105;BME280;70664;51.472;5.712;2023-07-29T02:47:15;100534.78;;;20.77;68.34
42105;BME280;70664;51.472;5.712;2023-07-29T02:49:41;100523.38;;;20.78;68.18
42105;BME280;70664;51.472;5.712;2023-07-29T02:52:12;100523.38;;;20.78;68.54
42105;BME280;70664;51.472;5.712;2023-07-29T02:54:47;100518.25;;;20.76;68.26
42105;BME280;70664;51.472;5.712;2023-07-29T02:57:16;100522.53;;;20.77;68.73
42105;BME280;70664;51.472;5.712;2023-07-29T02:59:43;100519.09;;;20.77;68.55
42105;BME280;70664;51.472;5.712;2023-07-29T03:02:11;100513.88;;;20.77;68.21
42105;BME280;70664;51.472;5.712;2023-07-29T03:04:40;100514.75;;;20.76;68.05
42105;BME280;70664;51.472;5.712;2023-07-29T03:07:05;100519.97;;;20.76;68.16
42105;BME280;70664;51.472;5.712;2023-07-29T03:09:31;100516.59;;;20.74;68.17
42105;BME280;70664;51.472;5.712;2023-07-29T03:12:17;100512.16;;;20.76;68.50
42105;BME280;70664;51.472;5.712;2023-07-29T03:14:51;100506.06;;;20.75;68.50
42105;BME280;70664;51.472;5.712;2023-07-29T03:17:22;100510.44;;;20.75;68.25
42105;BME280;70664;51.472;5.712;2023-07-29T03:19:49;100509.59;;;20.74;68.53
42105;BME280;70664;51.472;5.712;2023-07-29T03:22:15;100502.63;;;20.75;68.28
42105;BME280;70664;51.472;5.712;2023-07-29T03:24:41;100506.13;;;20.74;68.10
42105;BME280;70664;51.472;5.712;2023-07-29T03:27:10;100507.84;;;20.75;68.07
42105;BME280;70664;51.472;5.712;2023-07-29T03:29:36;100505.22;;;20.75;68.51
42105;BME280;70664;51.472;5.712;2023-07-29T03:32:02;100506.97;;;20.74;68.14
42105;BME280;70664;51.472;5.712;2023-07-29T03:34:31;100511.38;;;20.74;68.31
42105;BME280;70664;51.472;5.712;2023-07-29T03:36:57;100529.66;;;20.74;68.12
42105;BME280;70664;51.472;5.712;2023-07-29T03:39:23;100520.94;;;20.73;68.25
42105;BME280;70664;51.472;5.712;2023-07-29T03:41:49;100527.03;;;20.74;68.33
42105;BME280;70664;51.472;5.712;2023-07-29T03:44:15;100524.44;;;20.74;67.98
42105;BME280;70664;51.472;5.712;2023-07-29T03:46:44;100518.34;;;20.73;68.37
42105;BME280;70664;51.472;5.712;2023-07-29T03:49:11;100521.03;;;20.72;68.25
42105;BME280;70664;51.472;5.712;2023-07-29T03:51:37;100528.78;;;20.73;68.26
42105;BME280;70664;51.472;5.712;2023-07-29T03:54:03;100541.00;;;20.73;68.09
42105;BME280;70664;51.472;5.712;2023-07-29T03:56:29;100525.34;;;20.73;68.11
42105;BME280;70664;51.472;5.712;2023-07-29T03:59:03;100529.69;;;20.72;67.93
42105;BME280;70664;51.472;5.712;2023-07-29T04:01:29;100534.09;;;20.72;68.01
42105;BME280;70664;51.472;5.712;2023-07-29T04:03:55;100527.09;;;20.72;67.93
42105;BME280;70664;51.472;5.712;2023-07-29T04:06:30;100533.19;;;20.73;67.95
42105;BME280;70664;51.472;5.712;2023-07-29T04:08:56;100521.94;;;20.71;67.80
42105;BME280;70664;51.472;5.712;2023-07-29T04:11:27;100505.34;;;20.72;67.63
42105;BME280;70664;51.472;5.712;2023-07-29T04:14:05;100493.22;;;20.71;67.99
42105;BME280;70664;51.472;5.712;2023-07-29T04:16:31;100474.06;;;20.70;67.98
42105;BME280;70664;51.472;5.712;2023-07-29T04:18:59;100480.16;;;20.71;67.85
42105;BME280;70664;51.472;5.712;2023-07-29T04:21:39;100487.13;;;20.70;67.79
42105;BME280;70664;51.472;5.712;2023-07-29T04:24:06;100486.28;;;20.70;67.81
42105;BME280;70664;51.472;5.712;2023-07-29T04:26:31;100487.13;;;20.70;67.86
42105;BME280;70664;51.472;5.712;2023-07-29T04:28:58;100497.56;;;20.70;67.98
42105;BME280;70664;51.472;5.712;2023-07-29T04:31:24;100506.28;;;20.71;67.57
42105;BME280;70664;51.472;5.712;2023-07-29T04:33:50;100517.63;;;20.70;68.02
42105;BME280;70664;51.472;5.712;2023-07-29T04:36:26;100533.31;;;20.70;67.64
42105;BME280;70664;51.472;5.712;2023-07-29T04:38:54;100531.53;;;20.70;67.82
42105;BME280;70664;51.472;5.712;2023-07-29T04:41:20;100539.38;;;20.70;67.72
42105;BME280;70664;51.472;5.712;2023-07-29T04:43:46;100555.03;;;20.70;68.00
42105;BME280;70664;51.472;5.712;2023-07-29T04:46:12;100555.97;;;20.69;67.62
42105;BME280;70664;51.472;5.712;2023-07-29T04:48:38;100550.69;;;20.71;67.75
42105;BME280;70664;51.472;5.712;2023-07-29T04:51:04;100548.06;;;20.71;67.46
42105;BME280;70664;51.472;5.712;2023-07-29T04:53:39;100553.34;;;20.69;67.54
42105;BME280;70664;51.472;5.712;2023-07-29T04:56:05;100550.72;;;20.69;67.82
42105;BME280;70664;51.472;5.712;2023-07-29T04:58:39;100548.06;;;20.71;67.81
42105;BME280;70664;51.472;5.712;2023-07-29T05:01:05;100545.50;;;20.69;67.34
42105;BME280;70664;51.472;5.712;2023-07-29T05:03:40;100534.16;;;20.70;67.24
42105;BME280;70664;51.472;5.712;2023-07-29T05:06:06;100546.38;;;20.70;67.88
42105;BME280;70664;51.472;5.712;2023-07-29T05:08:33;100550.72;;;20.69;67.51
42105;BME280;70664;51.472;5.712;2023-07-29T05:11:01;100555.13;;;20.69;67.55
42105;BME280;70664;51.472;5.712;2023-07-29T05:13:27;100562.97;;;20.69;67.55
42105;BME280;70664;51.472;5.712;2023-07-29T05:15:53;100561.25;;;20.68;67.60
42105;BME280;70664;51.472;5.712;2023-07-29T05:18:22;100566.41;;;20.69;67.72
42105;BME280;70664;51.472;5.712;2023-07-29T05:20:49;100576.03;;;20.69;67.59
42105;BME280;70664;51.472;5.712;2023-07-29T05:23:15;100576.84;;;20.69;67.78
42105;BME280;70664;51.472;5.712;2023-07-29T05:25:40;100575.25;;;20.66;67.64
42105;BME280;70664;51.472;5.712;2023-07-29T05:28:12;100572.53;;;20.68;67.36
42105;BME280;70664;51.472;5.712;2023-07-29T05:30:38;100576.06;;;20.67;67.64
42105;BME280;70664;51.472;5.712;2023-07-29T05:33:09;100575.16;;;20.68;67.25
42105;BME280;70664;51.472;5.712;2023-07-29T05:35:35;100575.25;;;20.66;67.36
42105;BME280;70664;51.472;5.712;2023-07-29T05:38:01;100574.31;;;20.68;67.55
42105;BME280;70664;51.472;5.712;2023-07-29T05:40:29;100574.31;;;20.68;67.69
42105;BME280;70664;51.472;5.712;2023-07-29T05:42:54;100578.69;;;20.67;67.23
42105;BME280;70664;51.472;5.712;2023-07-29T05:45:22;100583.00;;;20.68;67.60
42105;BME280;70664;51.472;5.712;2023-07-29T05:47:47;100584.78;;;20.68;67.06
42105;BME280;70664;51.472;5.712;2023-07-29T05:50:17;100593.53;;;20.66;67.40
42105;BME280;70664;51.472;5.712;2023-07-29T05:52:43;100585.59;;;20.68;67.41
42105;BME280;70664;51.472;5.712;2023-07-29T05:55:09;100574.19;;;20.71;67.47
42105;BME280;70664;51.472;5.712;2023-07-29T05:57:35;100582.88;;;20.71;66.70
42105;BME280;70664;51.472;5.712;2023-07-29T06:00:01;100574.91;;;20.74;66.61
42105;BME280;70664;51.472;5.712;2023-07-29T06:02:27;100571.38;;;20.75;66.88
42105;BME280;70664;51.472;5.712;2023-07-29T06:04:53;100568.75;;;20.75;66.89
42105;BME280;70664;51.472;5.712;2023-07-29T06:07:25;100574.72;;;20.79;66.52
42105;BME280;70664;51.472;5.712;2023-07-29T06:09:55;100571.91;;;20.84;66.28
42105;BME280;70664;51.472;5.712;2023-07-29T06:12:27;100563.94;;;20.87;66.28
42105;BME280;70664;51.472;5.712;2023-07-29T06:14:53;100562.44;;;20.81;66.68
42105;BME280;70664;51.472;5.712;2023-07-29T06:17:22;100569.44;;;20.80;66.82
42105;BME280;70664;51.472;5.712;2023-07-29T06:19:51;100568.56;;;20.80;66.52
42105;BME280;70664;51.472;5.712;2023-07-29T06:22:17;100566.03;;;20.78;66.99
42105;BME280;70664;51.472;5.712;2023-07-29T06:24:43;100564.34;;;20.77;66.71
42105;BME280;70664;51.472;5.712;2023-07-29T06:27:09;100564.25;;;20.79;66.62
42105;BME280;70664;51.472;5.712;2023-07-29T06:29:34;100569.44;;;20.80;66.58
42105;BME280;70664;51.472;5.712;2023-07-29T06:32:00;100577.16;;;20.84;66.64
42105;BME280;70664;51.472;5.712;2023-07-29T06:34:29;100565.78;;;20.85;66.24
42105;BME280;70664;51.472;5.712;2023-07-29T06:36:55;100569.19;;;20.87;66.71
42105;BME280;70664;51.472;5.712;2023-07-29T06:39:21;100565.69;;;20.86;66.38
42105;BME280;70664;51.472;5.712;2023-07-29T06:41:47;100568.25;;;20.88;66.28
42105;BME280;70664;51.472;5.712;2023-07-29T06:44:13;100575.19;;;20.89;66.13
42105;BME280;70664;51.472;5.712;2023-07-29T06:46:45;100577.72;;;20.90;66.25
42105;BME280;70664;51.472;5.712;2023-07-29T06:49:11;100584.72;;;20.90;66.41
42105;BME280;70664;51.472;5.712;2023-07-29T06:51:37;100583.84;;;20.89;66.70
42105;BME280;70664;51.472;5.712;2023-07-29T06:54:03;100581.31;;;20.88;66.48
42105;BME280;70664;51.472;5.712;2023-07-29T06:56:29;100585.69;;;20.87;66.18
42105;BME280;70664;51.472;5.712;2023-07-29T06:58:55;100586.47;;;20.89;66.43
42105;BME280;70664;51.472;5.712;2023-07-29T07:01:21;100589.94;;;20.90;66.41
42105;BME280;70664;51.472;5.712;2023-07-29T07:03:47;100589.03;;;20.91;66.60
42105;BME280;70664;51.472;5.712;2023-07-29T07:06:13;100596.94;;;20.89;66.66
42105;BME280;70664;51.472;5.712;2023-07-29T07:08:42;100587.38;;;20.88;66.90
42105;BME280;70664;51.472;5.712;2023-07-29T07:11:09;100593.41;;;20.90;66.94
42105;BME280;70664;51.472;5.712;2023-07-29T07:13:35;100594.31;;;20.89;67.14
42105;BME280;70664;51.472;5.712;2023-07-29T07:16:01;100594.31;;;20.89;66.88
42105;BME280;70664;51.472;5.712;2023-07-29T07:18:30;100600.41;;;20.90;66.92
42105;BME280;70664;51.472;5.712;2023-07-29T07:20:56;100596.94;;;20.89;67.22
42105;BME280;70664;51.472;5.712;2023-07-29T07:23:22;100602.16;;;20.89;67.11
42105;BME280;70664;51.472;5.712;2023-07-29T07:25:48;100596.00;;;20.90;67.17
42105;BME280;70664;51.472;5.712;2023-07-29T07:28:14;100596.94;;;20.89;67.14
42105;BME280;70664;51.472;5.712;2023-07-29T07:30:40;100605.63;;;20.90;67.23
42105;BME280;70664;51.472;5.712;2023-07-29T07:33:09;100595.22;;;20.88;67.13
42105;BME280;70664;51.472;5.712;2023-07-29T07:35:35;100604.75;;;20.89;67.37
42105;BME280;70664;51.472;5.712;2023-07-29T07:38:01;100605.69;;;20.88;67.20
42105;BME280;70664;51.472;5.712;2023-07-29T07:40:33;100606.53;;;20.89;67.58
42105;BME280;70664;51.472;5.712;2023-07-29T07:42:58;100611.78;;;20.89;67.00
42105;BME280;70664;51.472;5.712;2023-07-29T07:45:27;100610.06;;;20.88;67.02
42105;BME280;70664;51.472;5.712;2023-07-29T07:47:53;100618.75;;;20.88;67.35
42105;BME280;70664;51.472;5.712;2023-07-29T07:50:29;100613.53;;;20.88;67.21
42105;BME280;70664;51.472;5.712;2023-07-29T07:52:58;100612.72;;;20.86;67.07
42105;BME280;70664;51.472;5.712;2023-07-29T07:55:27;100603.97;;;20.87;67.57
42105;BME280;70664;51.472;5.712;2023-07-29T07:57:53;100617.00;;;20.89;67.36
42105;BME280;70664;51.472;5.712;2023-07-29T08:00:19;100612.69;;;20.88;67.57
42105;BME280;70664;51.472;5.712;2023-07-29T08:02:45;100619.63;;;20.89;67.08
42105;BME280;70664;51.472;5.712;2023-07-29T08:05:11;100614.38;;;20.89;67.14
42105;BME280;70664;51.472;5.712;2023-07-29T08:07:40;100615.28;;;20.88;67.31
42105;BME280;70664;51.472;5.712;2023-07-29T08:10:07;100610.06;;;20.88;67.45
42105;BME280;70664;51.472;5.712;2023-07-29T08:12:33;100617.00;;;20.89;67.37
42105;BME280;70664;51.472;5.712;2023-07-29T08:15:04;100611.00;;;20.87;67.10
42105;BME280;70664;51.472;5.712;2023-07-29T08:17:45;100611.81;;;20.87;66.63
42105;BME280;70664;51.472;5.712;2023-07-29T08:20:11;100603.16;;;20.87;66.61
42105;BME280;70664;51.472;5.712;2023-07-29T08:22:37;100615.47;;;20.83;66.92
42105;BME280;70664;51.472;5.712;2023-07-29T08:25:03;100610.13;;;20.86;67.08
42105;BME280;70664;51.472;5.712;2023-07-29T08:27:29;100619.66;;;20.87;66.85
42105;BME280;70664;51.472;5.712;2023-07-29T08:29:55;100618.81;;;20.87;66.99
42105;BME280;70664;51.472;5.712;2023-07-29T08:32:21;100612.69;;;20.88;67.39
42105;BME280;70664;51.472;5.712;2023-07-29T08:34:51;100617.91;;;20.88;67.02
42105;BME280;70664;51.472;5.712;2023-07-29T08:37:19;100624.06;;;20.87;66.69
42105;BME280;70664;51.472;5.712;2023-07-29T08:39:45;100626.66;;;20.87;66.80
42105;BME280;70664;51.472;5.712;2023-07-29T08:42:12;100626.78;;;20.84;67.05
42105;BME280;70664;51.472;5.712;2023-07-29T08:44:44;100627.72;;;20.83;67.00
42105;BME280;70664;51.472;5.712;2023-07-29T08:47:11;100626.78;;;20.84;66.64
42105;BME280;70664;51.472;5.712;2023-07-29T08:49:39;100625.94;;;20.83;66.88
42105;BME280;70664;51.472;5.712;2023-07-29T08:52:07;100625.09;;;20.83;66.58
42105;BME280;70664;51.472;5.712;2023-07-29T08:54:32;100625.94;;;20.83;66.88
42105;BME280;70664;51.472;5.712;2023-07-29T08:56:59;100635.53;;;20.83;66.73
42105;BME280;70664;51.472;5.712;2023-07-29T08:59:26;100621.63;;;20.82;66.25
42105;BME280;70664;51.472;5.712;2023-07-29T09:01:54;100620.69;;;20.83;66.40
42105;BME280;70664;51.472;5.712;2023-07-29T09:04:22;100612.94;;;20.82;66.45
42105;BME280;70664;51.472;5.712;2023-07-29T09:06:50;100614.66;;;20.83;66.62
42105;BME280;70664;51.472;5.712;2023-07-29T09:09:17;100607.63;;;20.83;66.96
42105;BME280;70664;51.472;5.712;2023-07-29T09:11:43;100608.50;;;20.84;66.71
42105;BME280;70664;51.472;5.712;2023-07-29T09:14:10;100600.66;;;20.84;66.88
42105;BME280;70664;51.472;5.712;2023-07-29T09:16:36;100591.97;;;20.83;66.66
42105;BME280;70664;51.472;5.712;2023-07-29T09:19:03;100594.56;;;20.83;66.66
42105;BME280;70664;51.472;5.712;2023-07-29T09:21:30;100595.44;;;20.84;66.37
42105;BME280;70664;51.472;5.712;2023-07-29T09:23:56;100604.91;;;20.86;66.50
42105;BME280;70664;51.472;5.712;2023-07-29T09:26:27;100604.91;;;20.86;66.62
42105;BME280;70664;51.472;5.712;2023-07-29T09:28:58;100617.13;;;20.86;66.40
42105;BME280;70664;51.472;5.712;2023-07-29T09:31:26;100604.06;;;20.86;66.51
42105;BME280;70664;51.472;5.712;2023-07-29T09:34:03;100598.75;;;20.87;66.24
42105;BME280;70664;51.472;5.712;2023-07-29T09:36:33;100601.38;;;20.87;66.04
42105;BME280;70664;51.472;5.712;2023-07-29T09:38:59;100596.16;;;20.87;65.98
42105;BME280;70664;51.472;5.712;2023-07-29T09:41:30;100595.31;;;20.87;66.17
42105;BME280;70664;51.472;5.712;2023-07-29T09:44:02;100591.78;;;20.88;66.04
42105;BME280;70664;51.472;5.712;2023-07-29T09:46:39;100596.94;;;20.89;66.03
42105;BME280;70664;51.472;5.712;2023-07-29T09:49:09;100591.69;;;20.89;66.38
42105;BME280;70664;51.472;5.712;2023-07-29T09:51:42;100597.00;;;20.88;66.29
42105;BME280;70664;51.472;5.712;2023-07-29T09:54:08;100599.53;;;20.89;66.40
42105;BME280;70664;51.472;5.712;2023-07-29T09:56:46;100590.88;;;20.89;66.36
42105;BME280;70664;51.472;5.712;2023-07-29T09:59:23;100595.22;;;20.88;66.19
42105;BME280;70664;51.472;5.712;2023-07-29T10:01:52;100602.16;;;20.89;66.10
42105;BME280;70664;51.472;5.712;2023-07-29T10:04:18;100603.84;;;20.90;66.02
42105;BME280;70664;51.472;5.712;2023-07-29T10:06:45;100602.03;;;20.92;66.11
42105;BME280;70664;51.472;5.712;2023-07-29T10:09:12;100604.28;;;21.00;66.00
42105;BME280;70664;51.472;5.712;2023-07-29T10:11:40;100605.16;;;21.01;66.13
42105;BME280;70664;51.472;5.712;2023-07-29T10:14:07;100597.22;;;21.02;65.63
42105;BME280;70664;51.472;5.712;2023-07-29T10:16:36;100598.09;;;21.03;66.04
42105;BME280;70664;51.472;5.712;2023-07-29T10:19:02;100600.53;;;21.06;65.83
42105;BME280;70664;51.472;5.712;2023-07-29T10:21:29;100608.38;;;21.06;66.05
42105;BME280;70664;51.472;5.712;2023-07-29T10:24:01;100594.47;;;21.05;66.03
42105;BME280;70664;51.472;5.712;2023-07-29T10:26:29;100595.31;;;21.06;65.39
42105;BME280;70664;51.472;5.712;2023-07-29T10:28:58;100604.09;;;21.05;65.36
42105;BME280;70664;51.472;5.712;2023-07-29T10:31:28;100589.13;;;21.08;65.03
42105;BME280;70664;51.472;5.712;2023-07-29T10:33:56;100590.59;;;21.14;65.07
42105;BME280;70664;51.472;5.712;2023-07-29T10:36:22;100595.91;;;21.13;65.28
42105;BME280;70664;51.472;5.712;2023-07-29T10:38:52;100600.34;;;21.10;65.36
42105;BME280;70664;51.472;5.712;2023-07-29T10:41:18;100600.28;;;21.12;65.67
42105;BME280;70664;51.472;5.712;2023-07-29T10:43:44;100590.69;;;21.13;65.69
42105;BME280;70664;51.472;5.712;2023-07-29T10:46:23;100581.06;;;21.13;65.32
42105;BME280;70664;51.472;5.712;2023-07-29T10:48:56;100586.25;;;21.15;65.50
42105;BME280;70664;51.472;5.712;2023-07-29T10:51:35;100580.16;;;21.14;65.67
42105;BME280;70664;51.472;5.712;2023-07-29T10:54:09;100587.84;;;21.17;65.39
42105;BME280;70664;51.472;5.712;2023-07-29T10:56:40;100575.56;;;21.19;65.58
42105;BME280;70664;51.472;5.712;2023-07-29T11:01:40;100576.25;;;21.23;65.50
42105;BME280;70664;51.472;5.712;2023-07-29T11:07:23;100572.81;;;21.22;64.98
42105;BME280;70664;51.472;5.712;2023-07-29T11:10:00;100574.50;;;21.23;65.27
42105;BME280;70664;51.472;5.712;2023-07-29T11:12:49;100583.06;;;21.27;65.19
42105;BME280;70664;51.472;5.712;2023-07-29T11:15:24;100573.44;;;21.28;65.47
42105;BME280;70664;51.472;5.712;2023-07-29T11:17:57;100577.78;;;21.29;64.94
42105;BME280;70664;51.472;5.712;2023-07-29T11:20:31;100575.16;;;21.29;65.55
42105;BME280;70664;51.472;5.712;2023-07-29T11:23:03;100569.91;;;21.29;64.97
42105;BME280;70664;51.472;5.712;2023-07-29T11:25:33;100572.53;;;21.29;64.95
42105;BME280;70664;51.472;5.712;2023-07-29T11:28:02;100577.81;;;21.27;65.12
42105;BME280;70664;51.472;5.712;2023-07-29T11:30:49;100577.91;;;21.25;65.17
42105;BME280;70664;51.472;5.712;2023-07-29T11:33:19;100574.44;;;21.25;65.13
42105;BME280;70664;51.472;5.712;2023-07-29T11:35:45;100570.13;;;21.24;65.07
42105;BME280;70664;51.472;5.712;2023-07-29T11:38:19;100565.81;;;21.23;64.83
42105;BME280;70664;51.472;5.712;2023-07-29T11:41:02;100567.50;;;21.24;65.27
42105;BME280;70664;51.472;5.712;2023-07-29T11:43:37;100569.19;;;21.25;65.36
42105;BME280;70664;51.472;5.712;2023-07-29T11:46:02;100566.53;;;21.27;65.27
42105;BME280;70664;51.472;5.712;2023-07-29T11:48:33;100560.56;;;21.23;65.38
42105;BME280;70664;51.472;5.712;2023-07-29T11:50:59;100572.03;;;21.20;65.25
42105;BME280;70664;51.472;5.712;2023-07-29T11:53:29;100560.72;;;21.20;65.79
42105;BME280;70664;51.472;5.712;2023-07-29T11:55:58;100572.94;;;21.19;66.35
42105;BME280;70664;51.472;5.712;2023-07-29T11:58:24;100574.72;;;21.19;67.08
42105;BME280;70664;51.472;5.712;2023-07-29T12:00:54;100575.66;;;21.18;68.07
42105;BME280;70664;51.472;5.712;2023-07-29T12:03:25;100569.56;;;21.17;68.83
42105;BME280;70664;51.472;5.712;2023-07-29T12:06:06;100572.72;;;21.24;68.43
42105;BME280;70664;51.472;5.712;2023-07-29T12:08:50;100565.09;;;21.19;69.64
42105;BME280;70664;51.472;5.712;2023-07-29T12:11:23;100573.03;;;21.18;70.28
42105;BME280;70664;51.472;5.712;2023-07-29T12:14:07;100566.94;;;21.17;70.29
42105;BME280;70664;51.472;5.712;2023-07-29T12:16:44;100567.94;;;21.15;70.63
42105;BME280;70664;51.472;5.712;2023-07-29T12:19:19;100572.38;;;21.13;70.14
42105;BME280;70664;51.472;5.712;2023-07-29T12:21:48;100581.97;;;21.12;70.82
42105;BME280;70664;51.472;5.712;2023-07-29T12:24:17;100575.06;;;21.11;70.95
42105;BME280;70664;51.472;5.712;2023-07-29T12:27:12;100569.78;;;21.13;70.67
42105;BME280;70664;51.472;5.712;2023-07-29T12:29:44;100564.53;;;21.13;71.91
42105;BME280;70664;51.472;5.712;2023-07-29T12:32:33;100566.28;;;21.12;72.57
42105;BME280;70664;51.472;5.712;2023-07-29T12:35:14;100562.06;;;21.09;72.06
42105;BME280;70664;51.472;5.712;2023-07-29T12:37:59;100567.28;;;21.09;71.93
42105;BME280;70664;51.472;5.712;2023-07-29T12:46:39;100606.03;;;21.20;70.80
42105;BME280;70664;51.472;5.712;2023-07-29T12:49:05;100616.34;;;21.23;70.63
42105;BME280;70664;51.472;5.712;2023-07-29T12:51:31;100625.03;;;21.24;70.51
42105;BME280;70664;51.472;5.712;2023-07-29T12:54:24;100641.34;;;21.29;70.18
42105;BME280;70664;51.472;5.712;2023-07-29T13:25:56;100651.56;;;21.54;68.75
42105;BME280;70664;51.472;5.712;2023-07-29T13:29:29;100642.03;;;21.53;69.20
42105;BME280;70664;51.472;5.712;2023-07-29T13:52:55;100622.69;;;21.37;72.80
42105;BME280;70664;51.472;5.712;2023-07-29T13:56:52;100614.66;;;21.42;72.49
42105;BME280;70664;51.472;5.712;2023-07-29T13:59:51;100614.72;;;21.40;73.17
42105;BME280;70664;51.472;5.712;2023-07-29T14:02:51;100616.41;;;21.41;73.74
42105;BME280;70664;51.472;5.712;2023-07-29T14:13:44;100611.00;;;21.46;71.81
42105;BME280;70664;51.472;5.712;2023-07-29T14:16:10;100611.00;;;21.46;71.83
42105;BME280;70664;51.472;5.712;2023-07-29T14:18:39;100603.19;;;21.44;72.86
42105;BME280;70664;51.472;5.712;2023-07-29T14:21:05;100605.03;;;21.42;72.41
42105;BME280;70664;51.472;5.712;2023-07-29T14:26:32;100599.03;;;21.40;73.06
42105;BME280;70664;51.472;5.712;2023-07-29T14:29:07;100598.09;;;21.41;72.62
42105;BME280;70664;51.472;5.712;2023-07-29T14:31:49;100593.66;;;21.43;72.34